Time;durP1;ratioP1;P1;durP2;ratioP2;P2;SDS_P1;SDS_P2;PMS_P1;PMS_P2;Temp;Humidity;BMP_temperature;BMP_pressure;BME280_temperature;BME280_humidity;BME280_pressure;Samples;Min_cycle;Max_cycle;Signal;HPM_P1;HPM_P2
2021/03/03 00:02:24;;;;;;;9.27;4.37;;;;;;;-3.99;100.00;102515.38;5014206;28;20120;-67
2021/03/03 00:04:51;;;;;;;11.00;5.10;;;;;;;-4.01;100.00;102502.38;5036778;28;20037;-67
2021/03/03 00:07:17;;;;;;;8.33;4.60;;;;;;;-4.05;100.00;102512.38;5018536;28;20068;-68
2021/03/03 00:09:43;;;;;;;8.43;4.90;;;;;;;-4.07;100.00;102501.94;5034012;28;20049;-68
2021/03/03 00:12:09;;;;;;;11.73;4.97;;;;;;;-4.09;100.00;102502.66;5005248;28;20390;-68
2021/03/03 00:14:36;;;;;;;7.67;4.63;;;;;;;-4.11;100.00;102499.97;5011220;28;20099;-67
2021/03/03 00:17:03;;;;;;;7.37;4.40;;;;;;;-4.13;100.00;102498.94;5013001;28;20128;-67
2021/03/03 00:19:29;;;;;;;8.97;4.57;;;;;;;-4.13;100.00;102500.63;5018030;28;20127;-68
2021/03/03 00:21:55;;;;;;;10.23;5.03;;;;;;;-4.14;100.00;102498.84;5038679;28;20041;-68
2021/03/03 00:24:21;;;;;;;10.37;4.77;;;;;;;-4.15;100.00;102507.38;5036256;28;20045;-67
2021/03/03 00:26:47;;;;;;;10.13;4.17;;;;;;;-4.16;100.00;102503.91;5011647;28;20083;-67
2021/03/03 00:29:14;;;;;;;9.47;4.13;;;;;;;-4.16;100.00;102506.50;5028146;28;20042;-68
2021/03/03 00:31:40;;;;;;;7.30;4.23;;;;;;;-4.15;100.00;102502.22;5039144;28;20413;-68
2021/03/03 00:34:07;;;;;;;10.47;4.57;;;;;;;-4.17;100.00;102509.88;5022993;28;20515;-68
2021/03/03 00:36:33;;;;;;;8.60;4.80;;;;;;;-4.16;100.00;102505.59;5014404;28;20045;-68
2021/03/03 00:38:59;;;;;;;10.50;4.67;;;;;;;-4.18;100.00;102507.19;5033495;28;20046;-67
2021/03/03 00:41:25;;;;;;;7.80;4.60;;;;;;;-4.19;100.00;102500.22;5012971;28;20057;-67
2021/03/03 00:43:51;;;;;;;9.33;4.33;;;;;;;-4.21;100.00;102497.53;5034529;28;20037;-68
2021/03/03 00:46:17;;;;;;;9.03;4.83;;;;;;;-4.21;100.00;102500.09;5040694;28;20493;-67
2021/03/03 00:48:44;;;;;;;9.27;5.27;;;;;;;-4.21;100.00;102494.03;5042961;28;20045;-67
2021/03/03 00:51:10;;;;;;;10.60;5.07;;;;;;;-4.21;100.00;102492.38;5031359;28;20036;-68
2021/03/03 00:53:36;;;;;;;10.37;5.43;;;;;;;-4.21;100.00;102491.47;5012583;28;20096;-68
2021/03/03 00:56:02;;;;;;;11.97;5.87;;;;;;;-4.22;100.00;102479.34;5032039;28;20072;-68
2021/03/03 00:58:28;;;;;;;8.17;4.97;;;;;;;-4.21;100.00;102486.31;5037271;28;20044;-67
2021/03/03 01:00:54;;;;;;;10.00;4.60;;;;;;;-4.20;100.00;102485.50;5039383;28;20123;-68
2021/03/03 01:03:21;;;;;;;11.90;5.47;;;;;;;-4.20;100.00;102489.03;5036662;28;20045;-68
2021/03/03 01:05:47;;;;;;;9.37;4.83;;;;;;;-4.18;100.00;102483.97;5036183;28;20593;-68
2021/03/03 01:08:13;;;;;;;9.00;4.73;;;;;;;-4.19;100.00;102484.75;5032077;28;20041;-67
2021/03/03 01:10:39;;;;;;;13.03;5.77;;;;;;;-4.18;100.00;102481.38;5005412;28;20091;-68
2021/03/03 01:13:06;;;;;;;9.13;5.10;;;;;;;-4.18;100.00;102476.22;5032018;28;20033;-67
2021/03/03 01:15:32;;;;;;;8.07;4.27;;;;;;;-4.17;100.00;102476.31;5031514;28;20398;-67
2021/03/03 01:18:01;;;;;;;9.90;5.00;;;;;;;-4.19;100.00;102475.31;5016451;28;20042;-67
2021/03/03 01:20:29;;;;;;;10.10;4.87;;;;;;;-4.19;100.00;102466.69;5017799;28;20041;-68
2021/03/03 01:22:56;;;;;;;10.50;5.03;;;;;;;-4.19;100.00;102469.25;5018666;28;20502;-67
2021/03/03 01:25:22;;;;;;;8.80;4.97;;;;;;;-4.19;100.00;102477.00;5032643;28;20038;-68
2021/03/03 01:27:48;;;;;;;12.23;5.20;;;;;;;-4.20;100.00;102468.38;5012926;28;20035;-67
2021/03/03 01:30:15;;;;;;;8.97;4.73;;;;;;;-4.17;100.00;102473.72;5039354;28;20041;-68
2021/03/03 01:32:42;;;;;;;9.60;4.87;;;;;;;-4.15;100.00;102466.97;5015420;28;20041;-67
2021/03/03 01:35:09;;;;;;;10.43;4.73;;;;;;;-4.15;100.00;102461.81;5014680;28;20037;-67
2021/03/03 01:37:35;;;;;;;9.10;5.33;;;;;;;-4.15;100.00;102464.41;5022345;28;20102;-68
2021/03/03 01:40:03;;;;;;;8.80;5.90;;;;;;;-4.14;100.00;102458.44;5036973;28;20026;-67
2021/03/03 01:42:29;;;;;;;13.03;5.40;;;;;;;-4.14;100.00;102463.59;5028804;28;20037;-67
2021/03/03 01:44:55;;;;;;;9.40;5.47;;;;;;;-4.14;100.00;102452.38;5015043;28;20087;-67
2021/03/03 01:47:21;;;;;;;7.93;4.77;;;;;;;-4.15;100.00;102456.66;5002387;28;20595;-67
2021/03/03 01:49:47;;;;;;;10.53;4.53;;;;;;;-4.18;100.00;102453.88;5035170;28;20553;-67
2021/03/03 01:52:14;;;;;;;10.63;5.30;;;;;;;-4.21;100.00;102438.16;5032583;28;20041;-68
2021/03/03 01:54:40;;;;;;;12.67;5.80;;;;;;;-4.22;100.00;102430.31;5014895;28;20049;-68
2021/03/03 01:57:06;;;;;;;11.40;5.80;;;;;;;-4.26;100.00;102430.13;5034991;28;20320;-68
2021/03/03 01:59:33;;;;;;;11.23;6.27;;;;;;;-4.30;100.00;102424.66;5039178;28;20121;-68
2021/03/03 02:01:59;;;;;;;12.23;6.00;;;;;;;-4.32;100.00;102418.50;5017398;28;20041;-68
2021/03/03 02:04:25;;;;;;;13.50;6.23;;;;;;;-4.33;100.00;102419.28;5039691;28;20151;-68
2021/03/03 02:06:51;;;;;;;12.80;5.50;;;;;;;-4.35;100.00;102416.63;5017653;28;20033;-67
2021/03/03 02:09:23;;;;;;;14.03;6.77;;;;;;;-4.36;100.00;102409.66;5037156;28;20410;-67
2021/03/03 02:11:54;;;;;;;13.37;6.10;;;;;;;-4.39;100.00;102405.97;5016897;28;20029;-67
2021/03/03 02:14:23;;;;;;;15.43;7.30;;;;;;;-4.40;100.00;102402.50;5017572;28;20037;-67
2021/03/03 02:16:50;;;;;;;17.70;7.70;;;;;;;-4.44;100.00;102400.50;5017596;28;20084;-67
2021/03/03 02:19:22;;;;;;;16.60;7.50;;;;;;;-4.46;100.00;102393.44;5012814;28;20119;-67
2021/03/03 02:21:55;;;;;;;15.40;7.83;;;;;;;-4.47;100.00;102394.22;5033590;28;20560;-67
2021/03/03 02:24:25;;;;;;;15.67;7.53;;;;;;;-4.50;100.00;102396.63;5004796;28;20046;-67
2021/03/03 02:26:52;;;;;;;17.83;7.87;;;;;;;-4.51;100.00;102384.50;5013502;28;20041;-67
2021/03/03 02:29:24;;;;;;;16.43;7.80;;;;;;;-4.54;100.00;102382.59;5020968;28;20121;-67
2021/03/03 02:31:51;;;;;;;16.20;7.73;;;;;;;-4.55;100.00;102383.41;5020630;28;20510;-68
2021/03/03 02:34:19;;;;;;;16.20;8.17;;;;;;;-4.56;100.00;102387.66;5040211;28;20048;-68
2021/03/03 02:36:46;;;;;;;15.87;7.07;;;;;;;-4.59;100.00;102384.88;5013415;28;20071;-67
2021/03/03 02:39:14;;;;;;;16.10;6.90;;;;;;;-4.61;100.00;102371.00;5022535;28;20045;-67
2021/03/03 02:41:41;;;;;;;16.00;7.60;;;;;;;-4.65;100.00;102370.66;5041063;28;20034;-67
2021/03/03 02:44:07;;;;;;;14.53;7.43;;;;;;;-4.67;100.00;102370.56;5013254;28;20045;-67
2021/03/03 02:46:34;;;;;;;15.43;7.30;;;;;;;-4.69;100.00;102372.16;5033836;28;20511;-67
2021/03/03 02:49:02;;;;;;;15.50;7.30;;;;;;;-4.71;100.00;102363.41;5014170;28;20063;-67
2021/03/03 02:51:28;;;;;;;13.50;6.33;;;;;;;-4.73;100.00;102358.94;5010389;28;20045;-67
2021/03/03 02:53:54;;;;;;;17.37;8.13;;;;;;;-4.73;100.00;102365.00;5005658;28;20037;-67
2021/03/03 02:56:22;;;;;;;12.10;7.07;;;;;;;-4.75;100.00;102356.25;5016793;28;20095;-67
2021/03/03 02:58:50;;;;;;;16.80;7.33;;;;;;;-4.77;100.00;102352.69;5017039;28;20107;-67
2021/03/03 03:01:17;;;;;;;15.47;7.03;;;;;;;-4.78;100.00;102356.06;5036590;28;20033;-66
2021/03/03 03:04:01;;;;;;;10.87;6.17;;;;;;;-4.80;100.00;102347.31;5011496;28;20486;-66
2021/03/03 03:06:31;;;;;;;15.75;6.68;;;;;;;-4.81;100.00;102349.00;5011558;28;20544;-67
2021/03/03 03:09:00;;;;;;;13.77;7.20;;;;;;;-4.83;100.00;102341.94;5020652;28;20106;-67
2021/03/03 03:11:29;;;;;;;16.00;7.13;;;;;;;-4.85;100.00;102334.13;5007900;28;20524;-67
2021/03/03 03:14:01;;;;;;;15.87;7.03;;;;;;;-4.88;100.00;102331.31;5017454;28;20494;-68
2021/03/03 03:16:27;;;;;;;14.03;6.27;;;;;;;-4.89;100.00;102326.06;5018371;28;20050;-67
2021/03/03 03:18:58;;;;;;;11.07;6.57;;;;;;;-4.90;100.00;102324.28;5022787;28;20065;-67
2021/03/03 03:21:26;;;;;;;14.43;6.53;;;;;;;-4.91;100.00;102317.34;5040361;28;20033;-67
2021/03/03 03:23:53;;;;;;;11.53;6.27;;;;;;;-4.91;100.00;102317.34;5014227;28;20079;-67
2021/03/03 03:26:24;;;;;;;11.27;5.63;;;;;;;-4.92;100.00;102312.97;5009216;28;20107;-68
2021/03/03 03:28:50;;;;;;;11.23;6.10;;;;;;;-4.94;100.00;102320.59;5015093;28;20068;-68
2021/03/03 03:31:17;;;;;;;11.00;6.50;;;;;;;-4.96;100.00;102319.63;5017667;28;20454;-67
2021/03/03 03:33:44;;;;;;;10.17;5.50;;;;;;;-4.96;100.00;102317.03;5021360;28;20388;-67
2021/03/03 03:36:10;;;;;;;14.47;7.10;;;;;;;-4.95;100.00;102320.50;5027521;28;20095;-68
2021/03/03 03:38:36;;;;;;;14.97;6.80;;;;;;;-4.95;100.00;102320.50;5038473;28;20033;-68
2021/03/03 03:41:05;;;;;;;16.70;6.47;;;;;;;-4.96;100.00;102318.69;5005392;28;20041;-68
2021/03/03 03:43:35;;;;;;;11.13;5.83;;;;;;;-4.98;100.00;102320.28;5037503;28;20033;-68
2021/03/03 03:46:02;;;;;;;13.87;6.53;;;;;;;-4.98;100.00;102317.69;5012645;28;20037;-68
2021/03/03 03:48:29;;;;;;;13.97;6.50;;;;;;;-5.01;100.00;102320.97;5040940;28;20041;-68
2021/03/03 03:50:55;;;;;;;10.90;6.43;;;;;;;-5.03;100.00;102326.81;5037287;28;20033;-68
2021/03/03 03:53:22;;;;;;;11.27;5.97;;;;;;;-5.05;100.00;102323.22;5036041;28;20037;-68
2021/03/03 03:55:48;;;;;;;11.17;6.00;;;;;;;-5.08;100.00;102318.75;5015448;28;20478;-68
2021/03/03 03:58:14;;;;;;;12.17;5.87;;;;;;;-5.08;100.00;102317.88;5010192;28;20049;-68
2021/03/03 04:00:40;;;;;;;15.60;6.83;;;;;;;-5.09;100.00;102314.38;5019162;28;20041;-68
2021/03/03 04:03:07;;;;;;;11.40;6.20;;;;;;;-5.13;100.00;102313.31;5028848;28;20045;-68
2021/03/03 04:05:34;;;;;;;12.70;6.63;;;;;;;-5.16;100.00;102313.06;5020744;28;20037;-68
2021/03/03 04:08:00;;;;;;;15.23;6.70;;;;;;;-5.16;100.00;102315.66;5040525;28;20434;-68
2021/03/03 04:10:29;;;;;;;11.53;6.17;;;;;;;-5.17;100.00;102319.00;5039747;28;20406;-68
2021/03/03 04:12:55;;;;;;;14.43;6.40;;;;;;;-5.18;100.00;102316.34;5032451;28;20037;-68
2021/03/03 04:15:23;;;;;;;14.63;6.43;;;;;;;-5.18;100.00;102321.50;5042503;28;20083;-68
2021/03/03 04:17:49;;;;;;;13.10;7.10;;;;;;;-5.19;100.00;102314.56;5034437;28;20053;-68
2021/03/03 04:20:17;;;;;;;13.67;6.47;;;;;;;-5.21;100.00;102321.28;5013997;28;20056;-68
2021/03/03 04:22:43;;;;;;;14.70;7.20;;;;;;;-5.25;100.00;102312.44;5016755;28;20048;-68
2021/03/03 04:25:11;;;;;;;12.90;6.30;;;;;;;-5.27;100.00;102310.56;5035020;28;20041;-68
2021/03/03 04:27:38;;;;;;;13.27;6.63;;;;;;;-5.28;100.00;102314.81;5019051;28;20123;-68
2021/03/03 04:30:08;;;;;;;14.57;6.73;;;;;;;-5.28;100.00;102306.19;5032493;28;20454;-68
2021/03/03 04:32:34;;;;;;;11.40;6.10;;;;;;;-5.30;100.00;102306.06;5018098;28;20040;-68
2021/03/03 04:35:00;;;;;;;17.20;7.23;;;;;;;-5.32;100.00;102297.34;5036669;28;20041;-68
2021/03/03 04:37:27;;;;;;;14.60;7.10;;;;;;;-5.30;100.00;102305.16;5012716;28;20437;-68
2021/03/03 04:39:53;;;;;;;12.80;6.57;;;;;;;-5.31;100.00;102304.28;5019344;28;20216;-68
2021/03/03 04:42:19;;;;;;;15.03;7.17;;;;;;;-5.31;100.00;102288.81;5039566;28;20034;-68
2021/03/03 04:44:45;;;;;;;13.00;7.27;;;;;;;-5.30;100.00;102294.84;5016786;28;20071;-68
2021/03/03 04:47:11;;;;;;;14.73;6.60;;;;;;;-5.31;100.00;102288.81;5022907;28;20060;-68
2021/03/03 04:49:38;;;;;;;12.73;7.70;;;;;;;-5.30;100.00;102292.28;5040824;28;20397;-67
2021/03/03 04:52:04;;;;;;;14.50;7.10;;;;;;;-5.33;100.00;102281.78;5017280;28;20200;-67
2021/03/03 04:54:30;;;;;;;15.73;7.37;;;;;;;-5.33;100.00;102279.19;5019310;28;20279;-67
2021/03/03 04:56:56;;;;;;;18.30;7.90;;;;;;;-5.34;100.00;102273.16;5029296;28;20045;-67
2021/03/03 04:59:23;;;;;;;12.27;6.80;;;;;;;-5.35;100.00;102284.25;5015445;28;20052;-67
2021/03/03 05:01:49;;;;;;;14.23;7.07;;;;;;;-5.35;100.00;102280.78;5037939;28;20029;-67
2021/03/03 05:04:15;;;;;;;10.70;6.73;;;;;;;-5.36;100.00;102276.44;5038447;28;20037;-67
2021/03/03 05:06:41;;;;;;;14.43;6.73;;;;;;;-5.39;100.00;102279.66;5035241;28;20033;-67
2021/03/03 05:09:07;;;;;;;12.90;6.23;;;;;;;-5.41;100.00;102265.78;5017393;28;20517;-67
2021/03/03 05:11:33;;;;;;;14.30;6.90;;;;;;;-5.42;100.00;102264.91;5032892;28;20044;-67
2021/03/03 05:14:00;;;;;;;16.60;7.47;;;;;;;-5.44;100.00;102260.44;5015435;28;20072;-67
2021/03/03 05:16:26;;;;;;;11.97;6.97;;;;;;;-5.47;100.00;102267.94;5032657;28;20037;-67
2021/03/03 05:18:52;;;;;;;16.80;7.80;;;;;;;-5.48;100.00;102261.88;5036246;28;20439;-67
2021/03/03 05:21:18;;;;;;;11.83;6.67;;;;;;;-5.50;100.00;102249.69;5028452;28;20547;-67
2021/03/03 05:23:44;;;;;;;14.93;6.60;;;;;;;-5.51;100.00;102263.38;5027424;28;20040;-67
2021/03/03 05:26:11;;;;;;;14.30;6.57;;;;;;;-5.51;100.00;102248.81;5007926;28;20049;-67
2021/03/03 05:28:37;;;;;;;14.77;6.70;;;;;;;-5.53;100.00;102245.25;5014145;28;20111;-67
2021/03/03 05:31:03;;;;;;;14.53;6.47;;;;;;;-5.53;100.00;102250.38;5032154;28;20388;-67
2021/03/03 05:33:35;;;;;;;13.33;7.10;;;;;;;-5.51;100.00;102248.81;5036689;28;20041;-67
2021/03/03 05:36:04;;;;;;;11.63;6.40;;;;;;;-5.52;100.00;102249.59;5043418;28;20041;-66
2021/03/03 05:38:40;;;;;;;13.93;6.70;;;;;;;-5.49;100.00;102259.22;5023515;28;20037;-66
2021/03/03 05:41:07;;;;;;;12.50;7.13;;;;;;;-5.49;100.00;102256.63;5015231;28;20100;-67
2021/03/03 05:43:35;;;;;;;14.37;7.03;;;;;;;-5.49;100.00;102256.63;5031977;28;20445;-66
2021/03/03 05:46:03;;;;;;;15.10;7.60;;;;;;;-5.50;100.00;102255.75;5020906;28;20428;-67
2021/03/03 05:48:45;;;;;;;15.73;7.63;;;;;;;-5.49;100.00;102249.81;5033382;28;20142;-68
2021/03/03 05:51:11;;;;;;;13.13;6.93;;;;;;;-5.49;100.00;102251.47;5015028;28;20091;-68
2021/03/03 05:53:38;;;;;;;17.00;7.90;;;;;;;-5.47;100.00;102249.91;5033446;28;20053;-68
2021/03/03 05:56:06;;;;;;;15.00;7.93;;;;;;;-5.45;100.00;102243.19;5020525;28;20067;-68
2021/03/03 05:58:37;;;;;;;14.73;7.43;;;;;;;-5.43;100.00;102239.94;5014592;28;20041;-67
2021/03/03 06:01:11;;;;;;;17.40;7.50;;;;;;;-5.39;100.00;102239.34;5017624;28;20052;-68
2021/03/03 06:03:38;;;;;;;13.47;6.77;;;;;;;-5.39;100.00;102235.88;4997647;28;20805;-69
2021/03/03 06:06:05;;;;;;;16.70;7.83;;;;;;;-5.35;100.00;102227.59;5016886;28;20034;-69
2021/03/03 06:08:31;;;;;;;12.43;6.87;;;;;;;-5.31;100.00;102231.25;4995508;28;20085;-69
2021/03/03 06:10:58;;;;;;;14.03;6.77;;;;;;;-5.28;100.00;102232.38;4999472;28;20026;-69
2021/03/03 06:13:25;;;;;;;13.83;6.47;;;;;;;-5.24;100.00;102229.19;4976838;28;20438;-70
2021/03/03 06:15:52;;;;;;;12.73;7.37;;;;;;;-5.20;100.00;102222.59;4991330;28;20106;-69
2021/03/03 06:18:19;;;;;;;14.40;7.57;;;;;;;-5.17;100.00;102231.41;4984894;28;20585;-69
2021/03/03 06:20:51;;;;;;;15.03;7.67;;;;;;;-5.10;100.00;102233.63;4986388;28;20038;-70
2021/03/03 06:23:20;;;;;;;14.77;7.43;;;;;;;-5.03;100.00;102231.47;4984699;28;20490;-69
2021/03/03 06:25:48;;;;;;;13.60;7.63;;;;;;;-4.99;100.00;102225.72;4969863;28;20483;-69
2021/03/03 06:28:31;;;;;;;19.97;8.77;;;;;;;-4.94;100.00;102225.25;4973681;28;20454;-69
2021/03/03 06:30:57;;;;;;;17.90;8.60;;;;;;;-4.88;100.00;102225.63;4987450;28;20043;-69
2021/03/03 06:33:27;;;;;;;18.50;9.43;;;;;;;-4.81;100.00;102219.19;4951190;28;20046;-69
2021/03/03 06:35:54;;;;;;;16.23;8.63;;;;;;;-4.74;100.00;102223.09;5004832;28;20042;-69
2021/03/03 06:38:30;;;;;;;18.83;8.87;;;;;;;-4.69;100.00;102222.59;4966243;28;20358;-70
2021/03/03 06:40:59;;;;;;;19.17;9.13;;;;;;;-4.64;100.00;102226.34;4969448;28;20081;-69
2021/03/03 06:43:28;;;;;;;25.63;11.43;;;;;;;-4.57;100.00;102222.50;4984251;28;20134;-69
2021/03/03 06:45:56;;;;;;;23.33;11.03;;;;;;;-4.51;100.00;102217.75;4983961;28;20070;-69
2021/03/03 06:48:39;;;;;;;17.40;10.17;;;;;;;-4.43;100.00;102213.09;4970808;28;20101;-70
2021/03/03 06:51:19;;;;;;;19.33;9.17;;;;;;;-4.37;100.00;102205.72;4987531;28;20439;-71
2021/03/03 06:53:45;;;;;;;17.70;8.70;;;;;;;-4.30;100.00;102206.22;4987568;28;20069;-68
2021/03/03 06:56:12;;;;;;;19.23;10.03;;;;;;;-4.21;100.00;102195.59;4985158;28;20089;-70
2021/03/03 06:58:38;;;;;;;17.87;9.33;;;;;;;-4.13;100.00;102198.66;4974420;28;20074;-70
2021/03/03 07:01:04;;;;;;;18.00;8.93;;;;;;;-4.07;100.00;102196.47;4974095;28;20043;-69
2021/03/03 07:03:34;;;;;;;17.20;8.83;;;;;;;-3.98;100.00;102197.06;5002558;28;20042;-70
2021/03/03 07:06:03;;;;;;;16.37;9.50;;;;;;;-3.91;100.00;102199.22;5007154;28;20758;-70
2021/03/03 07:08:30;;;;;;;18.50;8.90;;;;;;;-3.83;100.00;102197.13;4969388;28;20120;-69
2021/03/03 07:10:56;;;;;;;20.30;10.20;;;;;;;-3.76;100.00;102204.47;4989261;28;20113;-69
2021/03/03 07:13:39;;;;;;;17.53;9.43;;;;;;;-3.68;100.00;102198.06;4990606;28;20042;-70
2021/03/03 07:16:06;;;;;;;19.77;8.47;;;;;;;-3.60;100.00;102195.97;4972713;28;20042;-69
2021/03/03 07:18:39;;;;;;;15.53;8.60;;;;;;;-3.49;100.00;102207.84;5000834;28;20035;-69
2021/03/03 07:21:06;;;;;;;17.70;8.40;;;;;;;-3.41;100.00;102204.03;4986986;28;20109;-69
2021/03/03 07:23:43;;;;;;;15.53;8.43;;;;;;;-3.24;100.00;102207.63;4986902;28;20069;-70
2021/03/03 07:26:11;;;;;;;19.40;8.70;;;;;;;-2.95;100.00;102205.06;4993243;28;20112;-70
2021/03/03 07:28:38;;;;;;;19.40;10.63;;;;;;;-2.31;100.00;102206.19;4957158;28;20129;-70
2021/03/03 07:31:05;;;;;;;19.73;9.77;;;;;;;-1.24;100.00;102203.34;4973646;28;20388;-70
2021/03/03 07:33:32;;;;;;;16.67;8.70;;;;;;;-0.30;99.91;102189.91;4982522;28;20490;-70
2021/03/03 07:36:00;;;;;;;16.37;8.37;;;;;;;0.43;96.01;102201.97;4970229;28;20101;-70
2021/03/03 07:38:34;;;;;;;13.63;8.87;;;;;;;1.33;92.05;102192.84;4967627;28;20792;-68
2021/03/03 07:41:09;;;;;;;13.15;7.25;;;;;;;1.45;88.07;102197.69;4987089;28;20721;-70
2021/03/03 07:43:35;;;;;;;13.23;7.47;;;;;;;1.34;86.63;102192.03;4987584;28;20069;-68
2021/03/03 07:46:06;;;;;;;16.07;8.70;;;;;;;1.50;85.25;102189.22;5004813;28;20053;-68
2021/03/03 07:48:33;;;;;;;19.50;8.60;;;;;;;1.85;83.86;102187.16;4983135;28;20760;-70
2021/03/03 07:51:01;;;;;;;15.67;8.10;;;;;;;2.80;81.37;102192.50;5006226;28;20491;-70
2021/03/03 07:53:28;;;;;;;19.87;10.83;;;;;;;4.42;77.01;102168.97;4981218;28;20121;-70
2021/03/03 07:55:55;;;;;;;17.87;10.17;;;;;;;5.96;74.12;102168.59;5003183;28;20049;-70
2021/03/03 07:58:22;;;;;;;27.80;14.23;;;;;;;7.40;71.41;102167.03;4980702;28;20038;-70
2021/03/03 08:00:49;;;;;;;26.60;14.67;;;;;;;8.69;67.02;102168.91;4986595;28;20058;-70
2021/03/03 08:03:42;;;;;;;28.85;16.27;;;;;;;9.69;63.83;102162.81;4971292;28;20047;-70
2021/03/03 08:06:20;;;;;;;17.60;10.02;;;;;;;10.38;60.96;102166.75;4987839;28;20402;-71
2021/03/03 08:09:05;;;;;;;14.70;8.77;;;;;;;11.55;56.40;102157.28;4987746;28;20054;-71
2021/03/03 08:11:36;;;;;;;17.35;10.43;;;;;;;12.16;52.86;102159.84;4988722;28;20443;-71
2021/03/03 08:14:02;;;;;;;19.83;11.32;;;;;;;12.58;52.42;102157.91;4980590;28;20619;-71
2021/03/03 08:16:28;;;;;;;14.18;9.93;;;;;;;12.90;50.83;102144.47;5004981;28;20093;-71
2021/03/03 08:18:58;;;;;;;16.73;10.70;;;;;;;13.52;47.82;102137.81;4999859;28;20047;-71
2021/03/03 08:21:25;;;;;;;17.42;11.10;;;;;;;13.78;47.21;102126.94;4970912;28;20647;-72
2021/03/03 08:23:59;;;;;;;18.42;12.00;;;;;;;14.48;44.84;102120.84;5003424;28;20705;-72
2021/03/03 08:26:28;;;;;;;26.52;15.07;;;;;;;14.95;46.17;102116.63;4985190;28;20415;-72
2021/03/03 08:29:12;;;;;;;19.10;12.45;;;;;;;15.37;45.04;102125.69;4989002;28;20077;-71
2021/03/03 08:31:40;;;;;;;19.73;12.35;;;;;;;16.18;44.09;102123.34;4984816;28;20038;-72
2021/03/03 08:34:09;;;;;;;20.38;13.20;;;;;;;17.03;41.08;102116.13;5000999;28;20045;-72
2021/03/03 08:36:35;;;;;;;20.42;13.32;;;;;;;17.74;40.71;102115.25;4987806;28;20415;-72
2021/03/03 08:39:02;;;;;;;19.73;13.13;;;;;;;18.19;38.98;102113.06;4970270;28;20158;-72
2021/03/03 08:41:34;;;;;;;25.23;17.02;;;;;;;18.18;39.00;102105.09;5002180;28;20055;-72
2021/03/03 08:44:10;;;;;;;22.67;14.25;;;;;;;19.14;37.40;102104.78;5001733;28;20081;-72
2021/03/03 08:46:47;;;;;;;22.88;16.20;;;;;;;19.39;37.01;102096.78;4984741;28;20038;-72
2021/03/03 08:49:13;;;;;;;21.63;15.73;;;;;;;19.94;37.24;102094.88;4981146;28;20038;-72
2021/03/03 08:51:42;;;;;;;26.30;18.60;;;;;;;19.31;34.16;102093.50;4989250;28;20133;-72
2021/03/03 08:54:14;;;;;;;23.67;18.38;;;;;;;19.73;36.40;102080.44;4970635;28;20046;-72
2021/03/03 08:56:44;;;;;;;21.17;14.98;;;;;;;20.40;35.93;102077.91;4984156;28;20049;-72
2021/03/03 08:59:13;;;;;;;20.15;15.85;;;;;;;20.55;35.39;102063.03;4983456;28;20074;-72
2021/03/03 09:02:02;;;;;;;20.88;16.95;;;;;;;21.36;33.09;102075.84;5000344;28;20392;-72
2021/03/03 09:04:33;;;;;;;23.83;17.48;;;;;;;21.27;33.32;102066.34;4980126;28;20418;-72
2021/03/03 09:07:05;;;;;;;18.98;14.60;;;;;;;21.74;32.87;102063.38;4998449;28;20129;-72
2021/03/03 09:09:36;;;;;;;19.70;14.93;;;;;;;22.47;31.28;102069.91;5002408;28;20097;-72
2021/03/03 09:12:07;;;;;;;17.45;15.45;;;;;;;22.86;30.87;102063.53;5001405;28;20578;-72
2021/03/03 09:14:35;;;;;;;22.38;16.42;;;;;;;22.54;31.17;102067.81;5001452;28;20069;-72
2021/03/03 09:17:04;;;;;;;19.77;14.82;;;;;;;23.28;29.39;102055.09;4986414;28;20038;-72
2021/03/03 09:19:31;;;;;;;20.08;15.38;;;;;;;22.91;30.32;102062.38;4984229;28;20042;-72
2021/03/03 09:21:59;;;;;;;19.13;16.42;;;;;;;23.57;29.39;102050.91;4968550;28;20031;-72
2021/03/03 09:24:25;;;;;;;20.30;15.68;;;;;;;23.39;29.28;102046.47;5001627;28;20833;-72
2021/03/03 09:27:04;;;;;;;19.08;15.70;;;;;;;23.25;29.57;102039.09;4968350;28;20038;-72
2021/03/03 09:29:32;;;;;;;20.50;15.82;;;;;;;23.99;29.60;102036.09;4981506;28;20640;-72
2021/03/03 09:32:04;;;;;;;19.00;14.45;;;;;;;24.42;27.65;102031.88;4983722;28;20058;-72
2021/03/03 09:34:32;;;;;;;18.20;15.27;;;;;;;25.07;27.35;102024.50;4985664;28;20126;-72
2021/03/03 09:37:00;;;;;;;19.17;14.55;;;;;;;25.11;27.11;102026.06;4986182;28;20054;-72
2021/03/03 09:39:27;;;;;;;19.13;15.05;;;;;;;24.17;27.87;102028.78;4969259;28;20838;-72
2021/03/03 09:41:58;;;;;;;22.35;17.17;;;;;;;24.20;26.62;102032.19;5000639;28;20522;-72
2021/03/03 09:44:25;;;;;;;19.05;14.70;;;;;;;24.68;27.28;102025.84;4995047;28;20033;-72
2021/03/03 09:46:56;;;;;;;16.55;14.05;;;;;;;24.95;26.15;102017.94;4970695;28;20057;-73
2021/03/03 09:49:31;;;;;;;17.95;14.52;;;;;;;24.68;25.75;102020.44;4987001;28;20438;-72
2021/03/03 09:51:58;;;;;;;17.00;14.88;;;;;;;24.92;25.34;102015.44;5001959;28;20038;-72
2021/03/03 09:54:33;;;;;;;17.95;14.80;;;;;;;24.66;25.45;102016.97;4979100;28;20042;-72
2021/03/03 09:57:07;;;;;;;16.83;14.18;;;;;;;24.98;27.07;102009.69;4955097;28;20361;-73
2021/03/03 09:59:36;;;;;;;15.20;13.48;;;;;;;24.98;24.72;102011.50;4974185;28;20116;-72
2021/03/03 10:02:03;;;;;;;16.15;12.85;;;;;;;24.73;25.84;102005.81;4974496;28;20034;-72
2021/03/03 10:04:30;;;;;;;17.58;12.77;;;;;;;24.81;24.57;102008.94;4978486;28;20053;-72
2021/03/03 10:07:09;;;;;;;15.23;13.30;;;;;;;24.27;25.26;102003.88;5001632;28;20124;-72
2021/03/03 10:09:43;;;;;;;14.20;12.02;;;;;;;24.62;26.83;101993.78;4997948;28;20140;-72
2021/03/03 10:12:31;;;;;;;15.30;13.18;;;;;;;25.01;24.86;101996.94;4966743;28;20113;-70
2021/03/03 10:15:03;;;;;;;16.40;13.15;;;;;;;25.23;23.84;101990.16;4959100;28;20057;-70
2021/03/03 10:17:35;;;;;;;15.75;12.40;;;;;;;24.73;24.99;101989.59;4968838;28;20042;-69
2021/03/03 10:20:40;;;;;;;15.48;12.90;;;;;;;24.63;23.54;101984.69;4972991;28;20042;-70
2021/03/03 10:23:16;;;;;;;15.93;12.32;;;;;;;25.38;23.72;101992.88;5002368;28;20526;-70
2021/03/03 10:25:47;;;;;;;14.57;13.05;;;;;;;25.61;24.41;101986.91;4998328;28;20042;-70
2021/03/03 10:28:20;;;;;;;14.73;12.13;;;;;;;25.18;22.30;102002.22;4984061;28;20047;-69
2021/03/03 10:30:49;;;;;;;17.23;13.88;;;;;;;25.38;23.45;101991.03;4996473;28;20106;-70
2021/03/03 10:33:37;;;;;;;14.90;11.82;;;;;;;25.82;22.41;101992.88;4964208;28;20590;-70
2021/03/03 10:36:06;;;;;;;14.90;12.43;;;;;;;23.39;24.58;101988.00;4980995;28;20052;-69
2021/03/03 10:38:37;;;;;;;16.23;12.45;;;;;;;22.46;27.18;101995.44;4964624;28;20097;-69
2021/03/03 10:41:04;;;;;;;15.18;10.45;;;;;;;24.34;24.86;101983.69;4980780;28;20038;-69
2021/03/03 10:43:31;;;;;;;15.63;11.82;;;;;;;24.19;25.14;101979.13;4981333;28;20038;-69
2021/03/03 10:46:27;;;;;;;15.75;12.48;;;;;;;23.03;25.78;101980.88;4979919;28;20125;-69
2021/03/03 10:48:55;;;;;;;18.33;13.00;;;;;;;20.98;28.32;101983.38;4955059;28;20135;-69
2021/03/03 10:51:35;;;;;;;18.48;13.40;;;;;;;21.12;28.86;101980.09;4995687;28;20104;-69
2021/03/03 10:54:01;;;;;;;19.63;14.52;;;;;;;21.22;29.08;101981.44;4944811;28;20404;-69
2021/03/03 10:56:30;;;;;;;17.67;13.02;;;;;;;21.37;28.89;101974.56;4972977;28;20623;-69
2021/03/03 10:59:01;;;;;;;18.38;13.77;;;;;;;22.04;28.86;101964.25;4959879;28;20053;-69
2021/03/03 11:01:39;;;;;;;17.00;13.07;;;;;;;22.77;27.01;101959.75;4948273;28;20034;-69
2021/03/03 11:04:06;;;;;;;17.13;12.65;;;;;;;23.19;26.58;101955.81;4985003;28;20038;-69
2021/03/03 11:06:33;;;;;;;16.63;12.73;;;;;;;23.97;26.74;101949.78;4999856;28;20050;-69
2021/03/03 11:09:04;;;;;;;17.17;12.55;;;;;;;24.26;25.09;101941.84;4967561;28;20034;-69
2021/03/03 11:11:30;;;;;;;16.98;12.70;;;;;;;25.05;25.76;101945.28;4983233;28;20107;-69
2021/03/03 11:13:56;;;;;;;17.25;12.95;;;;;;;25.49;24.60;101929.03;4965295;28;20035;-69
2021/03/03 11:16:23;;;;;;;17.15;12.50;;;;;;;25.87;23.61;101923.03;4985061;28;20035;-69
2021/03/03 11:18:49;;;;;;;19.75;13.98;;;;;;;25.61;23.81;101921.97;4983722;28;20081;-69